Time;durP1;ratioP1;P1;durP2;ratioP2;P2;SDS_P1;SDS_P2;PMS_P1;PMS_P2;Temp;Humidity;BMP_temperature;BMP_pressure;BME280_temperature;BME280_humidity;BME280_pressure;Samples;Min_cycle;Max_cycle;Signal;HPM_P1;HPM_P2
2023/10/02 00:05:05;;;;;;;0.82;0.70;;;;;;;;;;4996683;28;20112;-60
2023/10/02 00:07:42;;;;;;;0.90;0.70;;;;;;;;;;4996097;28;20042;-60
2023/10/02 00:10:11;;;;;;;2.70;0.82;;;;;;;;;;4996171;28;20048;-60
2023/10/02 00:12:38;;;;;;;1.90;1.17;;;;;;;;;;4986224;28;20106;-59
2023/10/02 00:15:14;;;;;;;0.43;0.43;;;;;;;;;;4972365;28;20045;-59
2023/10/02 00:17:44;;;;;;;0.80;0.60;;;;;;;;;;4971285;28;20019;-58
2023/10/02 00:20:20;;;;;;;10.38;1.00;;;;;;;;;;4971074;28;20031;-59
2023/10/02 00:22:47;;;;;;;0.65;0.30;;;;;;;;;;4970792;28;20038;-59
2023/10/02 00:25:21;;;;;;;1.05;0.80;;;;;;;;;;4985678;28;20042;-58
2023/10/02 00:27:51;;;;;;;7.80;1.17;;;;;;;;;;4995766;28;20034;-59
2023/10/02 00:30:20;;;;;;;0.90;0.70;;;;;;;;;;4995853;28;20026;-58
2023/10/02 00:32:48;;;;;;;0.55;0.40;;;;;;;;;;4995760;28;20481;-59
2023/10/02 00:35:15;;;;;;;1.40;0.77;;;;;;;;;;4995952;28;20030;-61
2023/10/02 00:37:51;;;;;;;1.10;0.63;;;;;;;;;;4975657;28;20027;-59
2023/10/02 00:40:21;;;;;;;0.75;0.57;;;;;;;;;;4970414;28;20034;-58
2023/10/02 00:42:55;;;;;;;3.83;0.73;;;;;;;;;;4970703;28;20035;-59
2023/10/02 00:45:23;;;;;;;0.85;0.63;;;;;;;;;;4970610;28;20384;-59
2023/10/02 00:47:50;;;;;;;1.90;0.80;;;;;;;;;;4974752;28;20030;-59
2023/10/02 00:50:20;;;;;;;5.47;1.20;;;;;;;;;;4993736;28;20033;-59
2023/10/02 00:53:03;;;;;;;1.80;0.85;;;;;;;;;;4995388;28;20043;-58
2023/10/02 00:55:34;;;;;;;1.75;1.02;;;;;;;;;;4995407;28;20030;-59
2023/10/02 00:58:04;;;;;;;1.27;0.85;;;;;;;;;;4994762;28;20061;-59
2023/10/02 01:00:53;;;;;;;4.47;1.50;;;;;;;;;;4987831;28;21467;-58
2023/10/02 01:03:19;;;;;;;2.47;1.10;;;;;;;;;;4969408;28;20034;-59
2023/10/02 01:05:50;;;;;;;1.75;1.05;;;;;;;;;;4970454;28;20027;-59
2023/10/02 01:08:24;;;;;;;1.20;0.82;;;;;;;;;;4970230;28;20046;-59
2023/10/02 01:10:57;;;;;;;1.80;0.95;;;;;;;;;;4975187;28;20486;-58
2023/10/02 01:13:34;;;;;;;8.57;1.83;;;;;;;;;;4983601;28;20054;-59
2023/10/02 01:16:08;;;;;;;9.60;0.98;;;;;;;;;;4994740;28;20105;-58
2023/10/02 01:18:35;;;;;;;0.85;0.73;;;;;;;;;;4994918;28;20453;-59
2023/10/02 01:21:09;;;;;;;3.15;1.40;;;;;;;;;;4994586;28;20042;-58
2023/10/02 01:24:08;;;;;;;1.75;1.17;;;;;;;;;;4989448;28;20481;-59
2023/10/02 01:26:40;;;;;;;2.47;0.93;;;;;;;;;;4971391;28;20034;-59
2023/10/02 01:29:07;;;;;;;4.43;1.52;;;;;;;;;;4969972;28;20027;-59
2023/10/02 01:31:51;;;;;;;1.65;1.02;;;;;;;;;;4970543;28;20043;-58
2023/10/02 01:34:33;;;;;;;7.95;1.30;;;;;;;;;;4987718;28;20049;-58
2023/10/02 01:37:00;;;;;;;7.83;3.93;;;;;;;;;;4994429;28;20054;-58
2023/10/02 01:39:27;;;;;;;2.20;1.23;;;;;;;;;;4994789;28;20022;-58
2023/10/02 01:41:54;;;;;;;2.43;1.23;;;;;;;;;;4990226;28;20026;-58
2023/10/02 01:44:22;;;;;;;6.13;1.90;;;;;;;;;;4973178;28;20478;-59
2023/10/02 01:46:50;;;;;;;2.77;1.53;;;;;;;;;;4969597;28;20082;-59
2023/10/02 01:49:27;;;;;;;2.70;1.73;;;;;;;;;;4969523;28;20054;-58
2023/10/02 01:52:01;;;;;;;9.73;0.63;;;;;;;;;;4972503;28;20038;-58
2023/10/02 01:54:31;;;;;;;2.33;1.30;;;;;;;;;;4990523;28;20022;-58
2023/10/02 01:56:59;;;;;;;2.40;1.70;;;;;;;;;;4994280;28;20033;-58
2023/10/02 01:59:26;;;;;;;2.37;1.63;;;;;;;;;;4994517;28;20105;-58
2023/10/02 02:01:57;;;;;;;23.77;1.57;;;;;;;;;;4994050;28;20030;-58
2023/10/02 02:04:27;;;;;;;3.40;1.40;;;;;;;;;;4983935;28;20504;-58
2023/10/02 02:06:57;;;;;;;15.93;2.10;;;;;;;;;;4972697;28;20037;-58
2023/10/02 02:09:30;;;;;;;27.27;9.50;;;;;;;;;;4968651;28;20031;-58
2023/10/02 02:12:14;;;;;;;9.07;1.37;;;;;;;;;;4968552;28;20046;-58
2023/10/02 02:14:50;;;;;;;1.90;1.37;;;;;;;;;;4969169;28;20474;-58
2023/10/02 02:17:18;;;;;;;3.57;1.83;;;;;;;;;;4971470;28;20168;-58
2023/10/02 02:19:48;;;;;;;1.27;0.80;;;;;;;;;;4974380;28;20030;-58
2023/10/02 02:22:18;;;;;;;3.00;1.80;;;;;;;;;;4974389;28;20410;-58
2023/10/02 02:24:47;;;;;;;4.57;1.67;;;;;;;;;;4974530;28;20019;-58
2023/10/02 02:27:19;;;;;;;3.87;1.70;;;;;;;;;;4976894;28;20077;-58
2023/10/02 02:29:50;;;;;;;8.07;1.13;;;;;;;;;;4990414;28;20030;-58
2023/10/02 02:32:19;;;;;;;1.10;1.00;;;;;;;;;;4988353;28;20034;-58
2023/10/02 02:34:49;;;;;;;1.27;0.73;;;;;;;;;;4988014;28;20034;-58
2023/10/02 02:37:25;;;;;;;0.93;0.80;;;;;;;;;;4988104;28;20030;-58
2023/10/02 02:40:22;;;;;;;2.40;1.30;;;;;;;;;;4988000;28;20033;-57
2023/10/02 02:42:41;;;;;;;6.97;1.10;;;;;;;;;;4989812;28;20074;-58
2023/10/02 02:45:24;;;;;;;5.37;0.90;;;;;;;;;;4992562;28;20109;-58
2023/10/02 02:47:53;;;;;;;2.63;1.33;;;;;;;;;;4973755;28;20031;-58
2023/10/02 02:50:27;;;;;;;2.27;0.97;;;;;;;;;;4974783;28;20172;-58
2023/10/02 02:53:16;;;;;;;1.63;0.70;;;;;;;;;;4984607;28;20042;-58
2023/10/02 02:55:42;;;;;;;2.20;1.10;;;;;;;;;;4987769;28;20035;-58
2023/10/02 02:58:09;;;;;;;5.77;1.20;;;;;;;;;;4987781;28;20113;-58
2023/10/02 03:00:35;;;;;;;8.20;1.27;;;;;;;;;;4987662;28;20033;-58
2023/10/02 03:03:23;;;;;;;4.03;1.43;;;;;;;;;;4976750;28;20062;-58
2023/10/02 03:05:52;;;;;;;1.60;0.90;;;;;;;;;;4973412;28;20086;-57
2023/10/02 03:08:19;;;;;;;1.37;0.90;;;;;;;;;;4973605;28;20375;-58
2023/10/02 03:10:47;;;;;;;1.30;0.90;;;;;;;;;;4973581;28;20023;-59
2023/10/02 03:13:16;;;;;;;1.43;1.13;;;;;;;;;;4973648;28;20030;-59
2023/10/02 03:15:46;;;;;;;4.20;1.10;;;;;;;;;;4988590;28;20043;-58
2023/10/02 03:21:22;;;;;;;1.03;0.87;;;;;;;;;;4953755;28;20038;-58
2023/10/02 03:24:00;;;;;;;2.30;1.10;;;;;;;;;;4987284;28;20851;-58
2023/10/02 03:26:27;;;;;;;1.37;1.10;;;;;;;;;;4980972;28;20029;-58
2023/10/02 03:29:03;;;;;;;1.23;0.83;;;;;;;;;;4973463;28;20030;-57
2023/10/02 03:32:01;;;;;;;0.67;0.63;;;;;;;;;;4973433;28;20489;-57
2023/10/02 03:34:27;;;;;;;1.33;1.10;;;;;;;;;;4973086;28;20046;-58
2023/10/02 03:36:59;;;;;;;1.37;1.07;;;;;;;;;;4972157;28;20466;-58
2023/10/02 03:42:14;;;;;;;1.30;0.90;;;;;;;;;;4967864;28;20042;-57
2023/10/02 03:44:45;;;;;;;2.53;1.10;;;;;;;;;;4967577;28;20527;-58
2023/10/02 03:47:15;;;;;;;1.73;0.70;;;;;;;;;;4984163;28;20449;-58
2023/10/02 03:49:45;;;;;;;1.80;1.13;;;;;;;;;;4992536;28;20393;-58
2023/10/02 03:52:16;;;;;;;1.47;0.97;;;;;;;;;;4990608;28;20121;-58
2023/10/02 03:54:44;;;;;;;0.97;0.80;;;;;;;;;;4992663;28;20558;-58
2023/10/02 03:57:11;;;;;;;4.00;1.93;;;;;;;;;;4992418;28;20065;-59
2023/10/02 03:59:52;;;;;;;2.80;1.40;;;;;;;;;;4990591;28;20088;-57
2023/10/02 04:02:25;;;;;;;3.87;1.73;;;;;;;;;;4982283;28;20059;-58
2023/10/02 04:04:52;;;;;;;1.40;0.80;;;;;;;;;;4967575;28;20042;-58
2023/10/02 04:07:18;;;;;;;1.73;0.90;;;;;;;;;;4967859;28;20081;-57
2023/10/02 04:09:50;;;;;;;2.00;1.30;;;;;;;;;;4968623;28;20026;-58
2023/10/02 04:12:19;;;;;;;2.93;1.20;;;;;;;;;;4972346;28;20482;-57
2023/10/02 04:14:46;;;;;;;5.20;1.20;;;;;;;;;;4980118;28;20045;-57
2023/10/02 04:19:49;;;;;;;2.43;1.27;;;;;;;;;;4972984;28;20478;-57
2023/10/02 04:22:22;;;;;;;5.53;1.93;;;;;;;;;;4971275;28;20158;-57
2023/10/02 04:24:53;;;;;;;2.37;1.40;;;;;;;;;;4967447;28;20031;-58
2023/10/02 04:27:25;;;;;;;1.43;0.97;;;;;;;;;;4968326;28;20046;-57
2023/10/02 04:32:42;;;;;;;4.30;1.80;;;;;;;;;;4969337;28;20078;-57
2023/10/02 04:37:58;;;;;;;3.50;1.17;;;;;;;;;;4981420;28;20588;-57
2023/10/02 04:40:37;;;;;;;2.23;1.17;;;;;;;;;;4995895;28;20544;-58
2023/10/02 04:43:26;;;;;;;2.27;1.23;;;;;;;;;;4995364;28;20058;-58
2023/10/02 04:46:01;;;;;;;2.93;1.73;;;;;;;;;;4991146;28;20034;-57
2023/10/02 04:48:38;;;;;;;1.60;1.20;;;;;;;;;;4990242;28;20038;-57
2023/10/02 04:51:12;;;;;;;1.00;0.90;;;;;;;;;;4975782;28;20375;-57
2023/10/02 04:53:46;;;;;;;1.17;1.07;;;;;;;;;;4970467;28;20117;-58
2023/10/02 04:58:57;;;;;;;2.53;1.43;;;;;;;;;;4975894;28;20114;-58
2023/10/02 05:01:28;;;;;;;4.50;1.70;;;;;;;;;;4980399;28;20026;-58
2023/10/02 05:03:55;;;;;;;2.33;1.50;;;;;;;;;;4975990;28;20066;-57
2023/10/02 05:09:25;;;;;;;4.47;1.47;;;;;;;;;;4970677;28;20065;-57
2023/10/02 05:12:04;;;;;;;4.40;1.63;;;;;;;;;;4973624;28;20117;-57
2023/10/02 05:14:34;;;;;;;1.50;1.03;;;;;;;;;;4989348;28;20104;-57
2023/10/02 05:17:17;;;;;;;6.10;0.83;;;;;;;;;;4989779;28;20030;-57
2023/10/02 05:19:56;;;;;;;3.50;1.70;;;;;;;;;;4994846;28;20113;-58
2023/10/02 05:22:33;;;;;;;6.83;1.43;;;;;;;;;;4990554;28;20081;-57
2023/10/02 05:25:04;;;;;;;1.53;1.20;;;;;;;;;;4994842;28;20116;-57
2023/10/02 05:27:32;;;;;;;3.80;1.20;;;;;;;;;;4994758;28;20045;-57
2023/10/02 05:29:59;;;;;;;1.30;1.00;;;;;;;;;;4992970;28;20033;-57
2023/10/02 05:32:29;;;;;;;1.07;0.87;;;;;;;;;;4978768;28;20125;-57
2023/10/02 05:35:03;;;;;;;0.77;0.57;;;;;;;;;;4969989;28;20022;-57
2023/10/02 05:37:32;;;;;;;1.77;1.05;;;;;;;;;;4969626;28;20106;-57
2023/10/02 05:45:47;;;;;;;1.83;1.33;;;;;;;;;;4994571;28;20034;-57
2023/10/02 05:50:53;;;;;;;1.33;0.90;;;;;;;;;;4994474;28;20034;-57
2023/10/02 05:53:34;;;;;;;3.57;2.17;;;;;;;;;;4990664;28;20057;-57
2023/10/02 05:58:38;;;;;;;1.50;1.03;;;;;;;;;;4969500;28;20474;-57
2023/10/02 06:01:06;;;;;;;0.50;0.40;;;;;;;;;;4969660;28;20248;-57
2023/10/02 06:03:37;;;;;;;1.00;0.90;;;;;;;;;;4972789;28;20386;-58
2023/10/02 06:06:24;;;;;;;5.30;2.60;;;;;;;;;;4994208;28;20037;-57
2023/10/02 06:08:51;;;;;;;3.23;1.83;;;;;;;;;;4994097;28;20058;-57
2023/10/02 06:11:32;;;;;;;5.17;1.20;;;;;;;;;;4994154;28;20089;-57
2023/10/02 06:14:10;;;;;;;4.90;1.77;;;;;;;;;;4990849;28;20046;-57
2023/10/02 06:16:40;;;;;;;3.43;1.73;;;;;;;;;;4968986;28;20034;-57
2023/10/02 06:19:13;;;;;;;1.30;0.97;;;;;;;;;;4973756;28;20045;-57
2023/10/02 06:21:46;;;;;;;1.33;0.93;;;;;;;;;;4988668;28;20037;-57
2023/10/02 06:24:16;;;;;;;1.37;1.00;;;;;;;;;;4988654;28;20026;-57
2023/10/02 06:26:58;;;;;;;1.43;1.07;;;;;;;;;;4993062;28;20031;-57
2023/10/02 06:29:28;;;;;;;1.40;0.97;;;;;;;;;;4987158;28;20030;-57
2023/10/02 06:31:59;;;;;;;1.03;0.63;;;;;;;;;;4974028;28;20043;-57
2023/10/02 06:34:36;;;;;;;1.00;0.67;;;;;;;;;;4981391;28;20026;-57
2023/10/02 06:37:07;;;;;;;1.40;0.97;;;;;;;;;;4993168;28;20101;-58
2023/10/02 06:39:35;;;;;;;1.33;0.80;;;;;;;;;;4980907;28;20042;-57
2023/10/02 06:42:08;;;;;;;1.30;0.97;;;;;;;;;;4968897;28;20043;-57
2023/10/02 06:44:41;;;;;;;1.77;1.00;;;;;;;;;;4968642;28;20102;-58
2023/10/02 06:47:11;;;;;;;1.73;1.00;;;;;;;;;;4968629;28;20042;-57
2023/10/02 06:49:40;;;;;;;0.77;0.77;;;;;;;;;;4982249;28;20035;-57
2023/10/02 06:52:17;;;;;;;0.70;0.67;;;;;;;;;;4993184;28;20068;-58
2023/10/02 06:54:45;;;;;;;1.83;1.17;;;;;;;;;;4993262;28;20023;-57
2023/10/02 06:57:15;;;;;;;1.57;1.03;;;;;;;;;;4992766;28;20030;-57
2023/10/02 06:59:51;;;;;;;0.70;0.60;;;;;;;;;;4983769;28;20490;-57
2023/10/02 07:02:26;;;;;;;1.83;1.23;;;;;;;;;;4968339;28;20023;-57
2023/10/02 07:04:53;;;;;;;;;;;;;;;;;;4978455;28;20026;-57
2023/10/02 07:07:26;;;;;;;1.50;1.07;;;;;;;;;;4969854;28;19910;-57
2023/10/02 07:10:07;;;;;;;0.90;0.70;;;;;;;;;;4968757;28;20409;-57
2023/10/02 07:12:39;;;;;;;1.33;0.80;;;;;;;;;;4984477;28;20433;-56
2023/10/02 07:15:22;;;;;;;11.43;4.20;;;;;;;;;;4992808;28;20038;-57
2023/10/02 07:17:49;;;;;;;6.77;3.07;;;;;;;;;;4992808;28;20044;-58
2023/10/02 07:20:18;;;;;;;36.27;1.87;;;;;;;;;;4992860;28;20367;-57
2023/10/02 07:22:45;;;;;;;2.03;1.37;;;;;;;;;;4990664;28;20034;-57
2023/10/02 07:25:12;;;;;;;2.47;1.70;;;;;;;;;;4970226;28;20446;-57
2023/10/02 07:27:40;;;;;;;1.33;0.93;;;;;;;;;;4968088;28;20022;-57
2023/10/02 07:30:09;;;;;;;1.50;1.20;;;;;;;;;;4968266;28;20035;-57
2023/10/02 07:32:35;;;;;;;1.93;1.30;;;;;;;;;;4968943;28;20031;-57
2023/10/02 07:35:21;;;;;;;4.50;1.70;;;;;;;;;;4974275;28;20521;-57
2023/10/02 07:38:00;;;;;;;1.67;1.17;;;;;;;;;;4992578;28;20034;-57
2023/10/02 07:40:46;;;;;;;4.93;2.03;;;;;;;;;;4992605;28;20023;-58
2023/10/02 07:43:23;;;;;;;2.03;1.47;;;;;;;;;;4992627;28;20019;-57
2023/10/02 07:46:06;;;;;;;1.80;1.30;;;;;;;;;;4989457;28;20101;-57
2023/10/02 07:48:36;;;;;;;3.07;1.70;;;;;;;;;;4971992;28;20050;-58
2023/10/02 07:51:06;;;;;;;2.50;1.33;;;;;;;;;;4967813;28;20077;-56
2023/10/02 07:53:39;;;;;;;0.97;0.80;;;;;;;;;;4967873;28;20081;-57
2023/10/02 07:56:06;;;;;;;3.70;1.67;;;;;;;;;;4970855;28;20493;-57
2023/10/02 07:58:35;;;;;;;2.63;1.27;;;;;;;;;;4972902;28;20562;-57
2023/10/02 08:01:11;;;;;;;1.03;0.63;;;;;;;;;;4988742;28;20113;-57
2023/10/02 08:03:44;;;;;;;4.07;1.07;;;;;;;;;;4992214;28;20076;-57
2023/10/02 08:11:50;;;;;;;8.30;1.37;;;;;;;;;;4987603;28;20061;-57
2023/10/02 08:14:38;;;;;;;1.97;1.17;;;;;;;;;;4971374;28;20035;-57
2023/10/02 08:17:17;;;;;;;1.13;0.97;;;;;;;;;;4971454;28;20425;-58
2023/10/02 08:20:15;;;;;;;1.00;0.83;;;;;;;;;;4976536;28;20037;-57
2023/10/02 08:22:45;;;;;;;2.83;1.10;;;;;;;;;;4976532;28;20042;-56
2023/10/02 08:25:16;;;;;;;1.33;0.97;;;;;;;;;;4990518;28;20042;-57
2023/10/02 08:27:49;;;;;;;1.37;1.00;;;;;;;;;;4995665;28;20034;-56
2023/10/02 08:30:28;;;;;;;1.97;1.37;;;;;;;;;;4993867;28;20057;-57
2023/10/02 08:33:09;;;;;;;1.70;1.17;;;;;;;;;;4990212;28;20444;-57
2023/10/02 08:35:37;;;;;;;1.30;0.77;;;;;;;;;;4987869;28;20035;-57
2023/10/02 08:38:21;;;;;;;0.80;0.70;;;;;;;;;;4970791;28;20255;-57
2023/10/02 08:41:00;;;;;;;1.48;0.95;;;;;;;;;;4973361;28;20069;-57
2023/10/02 08:43:41;;;;;;;0.77;0.50;;;;;;;;;;4976391;28;20462;-57
2023/10/02 08:46:19;;;;;;;0.70;0.60;;;;;;;;;;4975879;28;20027;-57
2023/10/02 08:48:47;;;;;;;1.50;1.07;;;;;;;;;;4977089;28;20359;-57
2023/10/02 08:51:28;;;;;;;2.07;0.73;;;;;;;;;;4976018;28;20352;-57
2023/10/02 08:53:58;;;;;;;1.03;0.90;;;;;;;;;;4971862;28;20114;-57
2023/10/02 08:56:43;;;;;;;0.90;0.70;;;;;;;;;;4970374;28;20054;-57
2023/10/02 08:59:18;;;;;;;0.25;0.25;;;;;;;;;;4970579;28;20054;-57
2023/10/02 09:01:47;;;;;;;1.23;0.90;;;;;;;;;;4970492;28;20090;-57
2023/10/02 09:04:28;;;;;;;0.37;0.37;;;;;;;;;;4974844;28;20027;-57
2023/10/02 09:06:58;;;;;;;3.03;1.07;;;;;;;;;;4975888;28;20034;-57
2023/10/02 09:11:53;;;;;;;1.17;0.77;;;;;;;;;;4980707;28;20359;-57
2023/10/02 09:14:39;;;;;;;0.77;0.50;;;;;;;;;;4994789;28;20030;-57
2023/10/02 09:17:43;;;;;;;0.83;0.60;;;;;;;;;;4989469;28;20034;-57
2023/10/02 09:20:03;;;;;;;3.23;0.80;;;;;;;;;;4986301;28;20038;-57
2023/10/02 09:22:34;;;;;;;4.47;1.27;;;;;;;;;;4989661;28;20101;-57
2023/10/02 09:25:12;;;;;;;0.90;0.73;;;;;;;;;;4975676;28;20034;-57
2023/10/02 09:27:54;;;;;;;2.30;0.77;;;;;;;;;;4975435;28;20118;-57
2023/10/02 09:30:24;;;;;;;1.00;0.80;;;;;;;;;;4975390;28;20038;-58
2023/10/02 09:32:52;;;;;;;2.07;1.10;;;;;;;;;;4975294;28;20114;-56
2023/10/02 09:38:03;;;;;;;2.17;1.10;;;;;;;;;;4976761;28;20252;-57
2023/10/02 09:43:22;;;;;;;0.70;0.60;;;;;;;;;;4970138;28;20046;-57
2023/10/02 09:45:49;;;;;;;0.70;0.50;;;;;;;;;;4969925;28;20073;-57
2023/10/02 09:51:08;;;;;;;1.13;0.90;;;;;;;;;;4994897;28;20390;-57
2023/10/02 09:53:39;;;;;;;3.77;1.53;;;;;;;;;;4994377;28;20097;-57
2023/10/02 09:56:10;;;;;;;1.10;0.80;;;;;;;;;;4994060;28;20152;-57
2023/10/02 09:58:47;;;;;;;1.67;1.20;;;;;;;;;;4984540;28;20059;-57
2023/10/02 10:03:57;;;;;;;1.23;0.83;;;;;;;;;;4969643;28;20089;-57
2023/10/02 10:06:41;;;;;;;6.07;1.73;;;;;;;;;;4969501;28;20023;-57
2023/10/02 10:11:49;;;;;;;1.27;1.00;;;;;;;;;;4977402;28;20047;-57
2023/10/02 10:14:36;;;;;;;2.93;2.00;;;;;;;;;;4974580;28;20131;-57
2023/10/02 10:17:14;;;;;;;1.90;1.37;;;;;;;;;;4974676;28;20027;-56
2023/10/02 10:20:18;;;;;;;3.73;1.80;;;;;;;;;;4974358;28;20082;-56
2023/10/02 10:22:55;;;;;;;1.77;1.30;;;;;;;;;;4982012;28;20038;-57
2023/10/02 10:28:08;;;;;;;1.77;1.43;;;;;;;;;;4988624;28;20030;-56
2023/10/02 10:30:39;;;;;;;1.57;1.27;;;;;;;;;;4987523;28;20084;-56
2023/10/02 10:36:08;;;;;;;3.10;1.40;;;;;;;;;;4976030;28;20039;-57
2023/10/02 10:38:28;;;;;;;1.80;0.93;;;;;;;;;;4973609;28;20557;-57
2023/10/02 10:41:01;;;;;;;3.17;1.93;;;;;;;;;;4973749;28;20070;-58
2023/10/02 10:46:19;;;;;;;2.17;1.37;;;;;;;;;;4974006;28;20049;-58
2023/10/02 10:49:23;;;;;;;2.10;1.43;;;;;;;;;;4987666;28;20165;-57
2023/10/02 10:51:43;;;;;;;1.13;0.77;;;;;;;;;;4987279;28;20035;-57
2023/10/02 10:54:13;;;;;;;2.00;1.43;;;;;;;;;;4988022;28;20023;-56
2023/10/02 10:56:46;;;;;;;1.70;1.30;;;;;;;;;;4991915;28;20027;-56
2023/10/02 10:59:14;;;;;;;6.07;2.37;;;;;;;;;;4979254;28;20027;-57
2023/10/02 11:04:39;;;;;;;3.10;1.93;;;;;;;;;;4974017;28;20093;-57
2023/10/02 11:07:19;;;;;;;1.70;1.43;;;;;;;;;;4973309;28;20023;-57
2023/10/02 11:10:22;;;;;;;2.67;1.67;;;;;;;;;;4971814;28;20038;-57
2023/10/02 11:13:01;;;;;;;1.30;1.20;;;;;;;;;;4987263;28;20468;-57
2023/10/02 11:15:48;;;;;;;1.47;0.93;;;;;;;;;;4987185;28;20100;-57
2023/10/02 11:18:19;;;;;;;3.73;2.00;;;;;;;;;;4989880;28;20062;-56
2023/10/02 11:20:54;;;;;;;2.30;1.37;;;;;;;;;;4992872;28;20390;-57
2023/10/02 11:23:40;;;;;;;1.70;1.17;;;;;;;;;;4990711;28;20065;-56
2023/10/02 11:26:21;;;;;;;3.00;1.10;;;;;;;;;;4992622;28;20049;-57
2023/10/02 11:28:51;;;;;;;2.00;1.33;;;;;;;;;;4992765;28;20093;-57
2023/10/02 11:31:35;;;;;;;2.30;1.27;;;;;;;;;;4988639;28;20041;-58
2023/10/02 11:34:06;;;;;;;3.83;1.38;;;;;;;;;;4983997;28;20042;-56
2023/10/02 11:36:34;;;;;;;1.53;1.00;;;;;;;;;;4985762;28;20031;-57
2023/10/02 11:39:16;;;;;;;1.00;0.87;;;;;;;;;;4987098;28;20029;-57
2023/10/02 11:41:43;;;;;;;1.63;1.17;;;;;;;;;;4991445;28;20381;-57
2023/10/02 11:44:12;;;;;;;2.20;1.43;;;;;;;;;;4992191;28;20418;-57
2023/10/02 11:46:43;;;;;;;1.43;1.03;;;;;;;;;;4977947;28;20033;-57
2023/10/02 11:49:12;;;;;;;1.90;1.23;;;;;;;;;;4973268;28;20136;-57
2023/10/02 11:51:39;;;;;;;1.00;0.87;;;;;;;;;;4973006;28;20037;-56
2023/10/02 11:54:09;;;;;;;1.67;1.27;;;;;;;;;;4968399;28;20978;-57
2023/10/02 11:56:38;;;;;;;0.97;0.80;;;;;;;;;;4967905;28;20545;-56
2023/10/02 11:59:06;;;;;;;4.67;1.17;;;;;;;;;;4981436;28;20105;-57
2023/10/02 12:01:35;;;;;;;2.87;1.63;;;;;;;;;;4987080;28;20033;-57
2023/10/02 12:04:04;;;;;;;1.53;1.30;;;;;;;;;;4991214;28;20034;-56
2023/10/02 12:06:31;;;;;;;2.00;1.17;;;;;;;;;;4992371;28;20506;-57
2023/10/02 12:08:58;;;;;;;3.47;1.93;;;;;;;;;;4992484;28;20080;-56
2023/10/02 12:11:28;;;;;;;2.87;1.70;;;;;;;;;;4976863;28;20030;-56
2023/10/02 12:13:56;;;;;;;1.67;1.40;;;;;;;;;;4972796;28;20494;-56
2023/10/02 12:16:23;;;;;;;6.20;1.80;;;;;;;;;;4968034;28;20533;-57
2023/10/02 12:18:50;;;;;;;0.77;0.73;;;;;;;;;;4967619;28;20027;-57
2023/10/02 12:21:19;;;;;;;1.47;1.30;;;;;;;;;;4967670;28;20034;-56
2023/10/02 12:23:46;;;;;;;1.97;1.30;;;;;;;;;;4983610;28;20034;-56
2023/10/02 12:26:20;;;;;;;6.27;2.37;;;;;;;;;;4990534;28;20038;-56
2023/10/02 12:28:49;;;;;;;0.90;0.80;;;;;;;;;;4992243;28;20092;-56
2023/10/02 12:31:19;;;;;;;2.17;1.60;;;;;;;;;;4991710;28;20106;-57
2023/10/02 12:33:47;;;;;;;1.60;1.27;;;;;;;;;;4991894;28;20540;-56
2023/10/02 12:36:17;;;;;;;2.30;1.50;;;;;;;;;;4972898;28;20058;-56
2023/10/02 12:38:45;;;;;;;6.70;1.10;;;;;;;;;;4968672;28;20031;-57
2023/10/02 12:41:22;;;;;;;1.23;0.90;;;;;;;;;;4967526;28;20390;-56
2023/10/02 12:44:08;;;;;;;1.63;1.30;;;;;;;;;;4967101;28;20797;-57
2023/10/02 12:46:43;;;;;;;1.93;1.20;;;;;;;;;;4971156;28;20019;-57
2023/10/02 12:49:14;;;;;;;1.53;1.17;;;;;;;;;;4991033;28;20109;-56
2023/10/02 12:51:41;;;;;;;2.83;1.53;;;;;;;;;;4991736;28;20030;-56
2023/10/02 12:54:09;;;;;;;2.53;1.30;;;;;;;;;;4992468;28;20030;-56
2023/10/02 12:56:36;;;;;;;1.63;0.93;;;;;;;;;;4995386;28;20039;-56
2023/10/02 12:59:06;;;;;;;1.97;1.27;;;;;;;;;;4984889;28;20042;-56
2023/10/02 13:01:33;;;;;;;0.90;0.70;;;;;;;;;;4971110;28;20031;-56
2023/10/02 13:04:01;;;;;;;3.73;1.30;;;;;;;;;;4970775;28;20037;-57
2023/10/02 13:06:29;;;;;;;10.93;1.97;;;;;;;;;;4970673;28;20102;-57
2023/10/02 13:09:04;;;;;;;3.53;1.20;;;;;;;;;;4975241;28;20030;-57
2023/10/02 13:11:31;;;;;;;2.47;1.40;;;;;;;;;;4994042;28;20038;-57
2023/10/02 13:13:57;;;;;;;4.57;2.23;;;;;;;;;;4995225;28;20828;-57
2023/10/02 13:16:25;;;;;;;1.70;1.13;;;;;;;;;;4995110;28;20022;-57
2023/10/02 13:18:55;;;;;;;1.73;1.30;;;;;;;;;;4991055;28;20506;-57
2023/10/02 13:21:22;;;;;;;3.67;1.00;;;;;;;;;;4975540;28;20027;-57
2023/10/02 13:23:49;;;;;;;1.90;1.10;;;;;;;;;;4971125;28;20040;-57
2023/10/02 13:26:19;;;;;;;1.10;0.90;;;;;;;;;;4969663;28;20031;-57
2023/10/02 13:28:52;;;;;;;1.03;0.83;;;;;;;;;;4970118;28;20450;-57
2023/10/02 13:31:19;;;;;;;1.37;0.97;;;;;;;;;;4979586;28;20038;-56
2023/10/02 13:33:51;;;;;;;1.23;1.03;;;;;;;;;;4993300;28;20062;-57
2023/10/02 13:36:22;;;;;;;2.90;0.80;;;;;;;;;;4994736;28;20066;-57
2023/10/02 13:38:50;;;;;;;0.83;0.70;;;;;;;;;;4994747;28;20488;-57
2023/10/02 13:41:17;;;;;;;1.57;1.20;;;;;;;;;;4984604;28;20117;-57
2023/10/02 13:43:52;;;;;;;1.67;1.23;;;;;;;;;;4975210;28;20041;-57
2023/10/02 13:46:20;;;;;;;1.33;1.05;;;;;;;;;;4970917;28;20039;-57
2023/10/02 13:48:48;;;;;;;1.27;1.00;;;;;;;;;;4969892;28;20034;-57
2023/10/02 13:51:18;;;;;;;1.87;0.97;;;;;;;;;;4977904;28;20041;-57
2023/10/02 13:53:45;;;;;;;5.40;0.93;;;;;;;;;;4989064;28;20038;-57
2023/10/02 13:56:25;;;;;;;1.50;1.10;;;;;;;;;;4979009;28;20023;-56
2023/10/02 13:58:52;;;;;;;1.97;1.33;;;;;;;;;;4974898;28;20038;-57
2023/10/02 14:01:24;;;;;;;1.50;1.27;;;;;;;;;;4975046;28;20034;-57
2023/10/02 14:03:51;;;;;;;2.30;1.07;;;;;;;;;;4974788;28;20038;-57
2023/10/02 14:06:19;;;;;;;0.90;0.80;;;;;;;;;;4986673;28;20496;-57
2023/10/02 14:08:46;;;;;;;1.27;1.00;;;;;;;;;;4989730;28;20113;-56
2023/10/02 14:11:19;;;;;;;1.33;0.80;;;;;;;;;;4989327;28;20022;-56
2023/10/02 14:13:49;;;;;;;8.43;1.47;;;;;;;;;;4988985;28;20036;-57
2023/10/02 14:16:19;;;;;;;2.10;1.33;;;;;;;;;;4988951;28;20038;-57
2023/10/02 14:18:51;;;;;;;0.87;0.80;;;;;;;;;;4976334;28;20041;-57
2023/10/02 14:21:21;;;;;;;2.07;1.40;;;;;;;;;;4974292;28;20446;-57
2023/10/02 14:23:48;;;;;;;4.60;1.33;;;;;;;;;;4974442;28;20035;-57
2023/10/02 14:26:15;;;;;;;1.00;0.83;;;;;;;;;;4974551;28;20062;-57
2023/10/02 14:28:43;;;;;;;3.30;1.33;;;;;;;;;;4976060;28;20570;-56
2023/10/02 14:31:10;;;;;;;2.70;1.47;;;;;;;;;;4989751;28;20056;-57
2023/10/02 14:33:40;;;;;;;3.73;1.73;;;;;;;;;;4988615;28;20121;-57
2023/10/02 14:36:07;;;;;;;16.80;1.13;;;;;;;;;;4988604;28;20049;-57
2023/10/02 14:38:37;;;;;;;2.57;1.30;;;;;;;;;;4988265;28;20084;-57
2023/10/02 14:41:03;;;;;;;1.43;1.23;;;;;;;;;;4985112;28;20031;-57
2023/10/02 14:43:34;;;;;;;1.33;1.10;;;;;;;;;;4974020;28;20058;-57
2023/10/02 14:46:00;;;;;;;1.40;1.00;;;;;;;;;;4974141;28;20094;-56
2023/10/02 14:48:28;;;;;;;2.80;1.20;;;;;;;;;;4974038;28;20027;-57
2023/10/02 14:50:58;;;;;;;2.13;1.50;;;;;;;;;;4973843;28;20034;-56
2023/10/02 14:53:28;;;;;;;2.73;1.27;;;;;;;;;;4979108;28;20244;-57
2023/10/02 14:55:55;;;;;;;1.13;1.00;;;;;;;;;;4988366;28;20022;-57
2023/10/02 14:58:22;;;;;;;1.47;1.00;;;;;;;;;;4988270;28;20382;-57
2023/10/02 15:00:49;;;;;;;3.97;1.27;;;;;;;;;;4988116;28;20023;-56
2023/10/02 15:03:16;;;;;;;4.40;1.40;;;;;;;;;;4989250;28;20026;-57
2023/10/02 15:05:43;;;;;;;4.00;1.47;;;;;;;;;;4993092;28;20076;-58
2023/10/02 15:08:13;;;;;;;1.43;0.93;;;;;;;;;;4992886;28;20030;-57
2023/10/02 15:10:42;;;;;;;1.40;0.87;;;;;;;;;;4993121;28;20072;-57
2023/10/02 15:13:10;;;;;;;1.17;0.80;;;;;;;;;;4983394;28;20039;-57
2023/10/02 15:15:37;;;;;;;0.70;0.57;;;;;;;;;;4970765;28;20039;-57
2023/10/02 15:18:08;;;;;;;2.60;1.37;;;;;;;;;;4978175;28;20037;-57
2023/10/02 15:20:35;;;;;;;1.57;1.20;;;;;;;;;;4983332;28;20038;-58
2023/10/02 15:23:02;;;;;;;3.17;1.73;;;;;;;;;;4988228;28;20038;-57
2023/10/02 15:25:30;;;;;;;11.07;1.33;;;;;;;;;;4990301;28;20513;-57
2023/10/02 15:28:00;;;;;;;2.70;1.50;;;;;;;;;;4984297;28;20081;-57
2023/10/02 15:30:27;;;;;;;1.70;1.20;;;;;;;;;;4973721;28;20027;-57
2023/10/02 15:32:55;;;;;;;3.13;1.63;;;;;;;;;;4973499;28;20043;-57
2023/10/02 15:35:22;;;;;;;3.03;1.23;;;;;;;;;;4973600;28;20027;-57
2023/10/02 15:37:49;;;;;;;1.63;1.13;;;;;;;;;;4970880;28;20023;-57
2023/10/02 15:40:20;;;;;;;1.57;1.17;;;;;;;;;;4976122;28;20390;-58
2023/10/02 15:42:50;;;;;;;1.67;1.23;;;;;;;;;;4987389;28;20034;-57
2023/10/02 15:45:19;;;;;;;0.53;0.50;;;;;;;;;;4988033;28;20034;-57
2023/10/02 15:47:50;;;;;;;1.47;1.00;;;;;;;;;;4989844;28;20034;-57
2023/10/02 15:50:17;;;;;;;2.13;1.27;;;;;;;;;;4992755;28;20030;-57
2023/10/02 15:52:44;;;;;;;4.57;1.87;;;;;;;;;;4979888;28;20109;-57
2023/10/02 15:55:13;;;;;;;5.60;1.03;;;;;;;;;;4973306;28;20145;-57
2023/10/02 15:57:43;;;;;;;0.87;0.80;;;;;;;;;;4973237;28;20045;-57
2023/10/02 16:00:11;;;;;;;1.63;1.00;;;;;;;;;;4970932;28;20045;-57
2023/10/02 16:02:41;;;;;;;0.90;0.77;;;;;;;;;;4968702;28;20769;-57
2023/10/02 16:05:08;;;;;;;1.07;0.77;;;;;;;;;;4968376;28;20027;-57
2023/10/02 16:07:36;;;;;;;3.77;1.27;;;;;;;;;;4968457;28;20035;-57
2023/10/02 16:10:06;;;;;;;1.20;0.80;;;;;;;;;;4969932;28;20033;-57
2023/10/02 16:12:33;;;;;;;1.13;0.90;;;;;;;;;;4990893;28;20038;-57
2023/10/02 16:15:00;;;;;;;3.50;1.50;;;;;;;;;;4992273;28;20038;-57
2023/10/02 16:17:26;;;;;;;8.83;1.63;;;;;;;;;;4974388;28;20385;-57
2023/10/02 16:19:53;;;;;;;1.17;0.93;;;;;;;;;;4973145;28;20106;-57